createdAt,value
2018-09-27T00:00:30.108Z,15.52
2018-09-27T00:01:30.039Z,15.53
2018-09-27T00:03:22.865Z,15.52
2018-09-27T00:04:22.795Z,15.51
2018-09-27T00:06:15.554Z,15.53
2018-09-27T00:07:15.489Z,15.62
2018-09-27T00:09:08.271Z,15.59
2018-09-27T00:10:08.191Z,15.59
2018-09-27T00:12:00.968Z,15.62
2018-09-27T00:13:00.903Z,15.56
2018-09-27T00:14:53.680Z,15.58
2018-09-27T00:15:53.601Z,15.56
2018-09-27T00:17:46.376Z,15.62
2018-09-27T00:18:46.297Z,15.55
2018-09-27T00:20:39.061Z,15.56
2018-09-27T00:21:38.993Z,15.56
2018-09-27T00:23:31.782Z,15.58
2018-09-27T00:24:31.709Z,15.56
2018-09-27T00:26:24.463Z,15.53
2018-09-27T00:27:24.398Z,15.56
2018-09-27T00:29:17.182Z,15.66
2018-09-27T00:30:17.100Z,15.55
2018-09-27T00:32:09.860Z,15.56
2018-09-27T00:33:09.800Z,15.59
2018-09-27T00:35:02.574Z,15.56
2018-09-27T00:36:02.498Z,15.58
2018-09-27T00:37:55.282Z,15.53
2018-09-27T00:38:55.196Z,15.59
2018-09-27T00:40:47.962Z,15.58
2018-09-27T00:41:47.897Z,15.58
2018-09-27T00:43:40.673Z,15.60
2018-09-27T00:44:40.598Z,15.53
2018-09-27T00:46:33.358Z,15.56
2018-09-27T00:47:33.300Z,15.59
2018-09-27T00:49:26.088Z,15.55
2018-09-27T00:50:25.994Z,15.70
2018-09-27T00:52:18.777Z,15.56
2018-09-27T00:53:18.712Z,15.59
2018-09-27T00:55:11.492Z,15.60
2018-09-27T00:56:11.422Z,15.58
2018-09-27T00:58:04.193Z,15.58
2018-09-27T00:59:04.120Z,15.64
2018-09-27T01:00:56.888Z,15.60
2018-09-27T01:01:56.821Z,15.58
2018-09-27T01:03:49.598Z,15.67
2018-09-27T01:04:49.518Z,15.67
2018-09-27T01:06:42.273Z,15.77
2018-09-27T01:07:42.217Z,15.64
2018-09-27T01:09:34.987Z,15.76
2018-09-27T01:10:34.914Z,15.77
2018-09-27T01:12:27.683Z,15.74
2018-09-27T01:13:27.643Z,15.73
2018-09-27T01:15:20.390Z,15.77
2018-09-27T01:16:20.318Z,15.76
2018-09-27T01:18:13.090Z,15.76
2018-09-27T01:19:13.013Z,15.80
2018-09-27T01:21:05.797Z,15.78
2018-09-27T01:22:05.734Z,15.81
2018-09-27T01:23:58.506Z,15.78
2018-09-27T01:24:58.428Z,15.81
2018-09-27T01:26:51.193Z,15.84
2018-09-27T01:27:51.129Z,15.76
2018-09-27T01:29:43.911Z,15.81
2018-09-27T01:30:43.830Z,15.80
2018-09-27T01:32:36.584Z,15.85
2018-09-27T01:33:36.514Z,15.88
2018-09-27T01:35:29.298Z,15.86
2018-09-27T01:36:29.221Z,15.92
2018-09-27T01:38:21.997Z,15.88
2018-09-27T01:39:21.928Z,15.84
2018-09-27T01:41:14.691Z,15.91
2018-09-27T01:42:14.626Z,15.91
2018-09-27T01:44:07.389Z,15.88
2018-09-27T01:45:07.312Z,15.86
2018-09-27T01:47:00.091Z,15.88
2018-09-27T01:48:00.008Z,15.89
2018-09-27T01:49:52.779Z,15.80
2018-09-27T01:50:52.703Z,15.88
2018-09-27T01:52:45.470Z,15.88
2018-09-27T01:53:45.439Z,15.91
2018-09-27T01:55:38.186Z,15.88
2018-09-27T01:56:38.103Z,15.92
2018-09-27T01:58:30.873Z,15.91
2018-09-27T01:59:30.799Z,15.89
2018-09-27T02:01:23.562Z,15.85
2018-09-27T02:02:23.502Z,15.84
2018-09-27T02:04:16.265Z,15.81
2018-09-27T02:05:16.225Z,15.73
2018-09-27T02:07:08.956Z,15.64
2018-09-27T02:08:08.890Z,15.66
2018-09-27T02:10:01.693Z,15.60
2018-09-27T02:11:01.612Z,15.53
2018-09-27T02:12:54.370Z,15.56
2018-09-27T02:13:54.308Z,15.56
2018-09-27T02:15:47.127Z,15.37
2018-09-27T02:16:47.001Z,15.40
2018-09-27T02:18:39.778Z,15.38
2018-09-27T02:19:39.711Z,15.37
2018-09-27T02:21:32.473Z,15.28
2018-09-27T02:22:32.406Z,15.25
2018-09-27T02:24:25.176Z,15.22
2018-09-27T02:25:25.100Z,15.19
2018-09-27T02:27:17.867Z,15.18
2018-09-27T02:28:17.807Z,15.16
2018-09-27T02:30:10.577Z,15.16
2018-09-27T02:31:10.502Z,15.15
2018-09-27T02:33:03.258Z,15.07
2018-09-27T02:34:03.200Z,15.07
2018-09-27T02:35:55.977Z,14.86
2018-09-27T02:36:55.899Z,14.85
2018-09-27T02:38:48.673Z,14.94
2018-09-27T02:39:48.601Z,14.95
2018-09-27T02:41:41.360Z,14.87
2018-09-27T02:42:41.292Z,14.98
2018-09-27T02:44:34.062Z,15.00
2018-09-27T02:45:33.987Z,14.98
2018-09-27T02:47:26.744Z,15.01
2018-09-27T02:48:26.702Z,14.86
2018-09-27T02:50:19.461Z,15.01
2018-09-27T02:51:19.385Z,14.87
2018-09-27T02:53:12.139Z,14.93
2018-09-27T02:54:12.075Z,14.83
2018-09-27T02:56:04.846Z,14.87
2018-09-27T02:57:04.771Z,14.87
2018-09-27T02:58:57.535Z,14.82
2018-09-27T02:59:57.463Z,14.82
2018-09-27T03:01:50.227Z,14.86
2018-09-27T03:02:50.161Z,14.86
2018-09-27T03:04:42.935Z,14.97
2018-09-27T03:05:42.861Z,14.87
2018-09-27T03:07:35.644Z,15.01
2018-09-27T03:08:35.561Z,15.07
2018-09-27T03:10:28.334Z,15.13
2018-09-27T03:11:28.261Z,15.15
2018-09-27T03:13:21.046Z,15.22
2018-09-27T03:14:20.977Z,15.27
2018-09-27T03:16:13.743Z,15.25
2018-09-27T03:17:13.670Z,15.33
2018-09-27T03:19:06.443Z,15.30
2018-09-27T03:20:06.366Z,15.13
2018-09-27T03:21:59.126Z,15.20
2018-09-27T03:22:59.062Z,15.22
2018-09-27T03:24:51.837Z,15.15
2018-09-27T03:25:51.756Z,15.13
2018-09-27T03:27:44.522Z,15.22
2018-09-27T03:28:44.454Z,15.20
2018-09-27T03:30:37.234Z,15.31
2018-09-27T03:31:37.161Z,15.25
2018-09-27T03:33:29.919Z,15.41
2018-09-27T03:34:29.857Z,15.33
2018-09-27T03:36:22.630Z,15.38
2018-09-27T03:37:22.552Z,15.38
2018-09-27T03:39:15.347Z,15.38
2018-09-27T03:40:15.332Z,15.43
2018-09-27T03:42:08.036Z,15.38
2018-09-27T03:43:07.964Z,15.30
2018-09-27T03:45:00.742Z,15.38
2018-09-27T03:46:00.669Z,15.41
2018-09-27T03:47:53.432Z,15.46
2018-09-27T03:48:53.363Z,15.48
2018-09-27T03:50:46.155Z,15.44
2018-09-27T03:51:46.059Z,15.43
2018-09-27T03:53:38.826Z,15.55
2018-09-27T03:54:38.763Z,15.44
2018-09-27T03:56:31.551Z,15.56
2018-09-27T03:57:31.465Z,15.60
2018-09-27T03:59:24.250Z,15.59
2018-09-27T04:00:24.146Z,15.53
2018-09-27T04:02:16.907Z,15.56
2018-09-27T04:03:16.914Z,15.60
2018-09-27T04:05:09.613Z,15.56
2018-09-27T04:06:09.537Z,15.59
2018-09-27T04:08:02.303Z,15.55
2018-09-27T04:09:02.232Z,15.59
2018-09-27T04:10:55.010Z,15.56
2018-09-27T04:11:54.927Z,15.59
2018-09-27T04:13:47.722Z,15.53
2018-09-27T04:14:47.640Z,15.55
2018-09-27T04:16:40.401Z,15.52
2018-09-27T04:17:40.343Z,15.48
2018-09-27T04:19:33.118Z,15.60
2018-09-27T04:20:33.052Z,15.53
2018-09-27T04:22:25.839Z,15.58
2018-09-27T04:23:25.765Z,15.53
2018-09-27T04:25:18.529Z,15.56
2018-09-27T04:26:18.456Z,15.56
2018-09-27T04:28:11.215Z,15.55
2018-09-27T04:29:11.152Z,15.53
2018-09-27T04:31:03.931Z,15.59
2018-09-27T04:32:03.843Z,15.59
2018-09-27T04:33:56.647Z,15.52
2018-09-27T04:34:56.532Z,15.56
2018-09-27T04:36:49.312Z,15.55
2018-09-27T04:37:49.236Z,15.53
2018-09-27T04:39:42.031Z,15.60
2018-09-27T04:40:41.958Z,15.58
2018-09-27T04:42:34.741Z,15.58
2018-09-27T04:43:34.668Z,15.58
2018-09-27T04:45:27.437Z,15.56
2018-09-27T04:46:27.364Z,15.58
2018-09-27T04:48:20.130Z,15.58
2018-09-27T04:49:20.065Z,15.67
2018-09-27T04:51:12.835Z,15.62
2018-09-27T04:52:12.756Z,15.55
2018-09-27T04:54:05.532Z,15.53
2018-09-27T04:55:05.486Z,15.58
2018-09-27T04:56:58.233Z,15.56
2018-09-27T04:57:58.152Z,15.56
2018-09-27T04:59:51.005Z,15.58
2018-09-27T05:00:50.876Z,15.55
2018-09-27T05:02:43.650Z,15.58
2018-09-27T05:03:43.621Z,15.59
2018-09-27T05:05:36.346Z,15.53
2018-09-27T05:06:36.278Z,15.53
2018-09-27T05:08:29.045Z,15.55
2018-09-27T05:09:28.986Z,15.66
2018-09-27T05:11:21.756Z,15.68
2018-09-27T05:12:21.679Z,15.70
2018-09-27T05:14:14.502Z,15.70
2018-09-27T05:15:14.438Z,15.67
2018-09-27T05:17:07.243Z,15.71
2018-09-27T05:18:07.164Z,15.71
2018-09-27T05:19:59.933Z,15.76
2018-09-27T05:20:59.855Z,15.60
2018-09-27T05:22:52.647Z,15.76
2018-09-27T05:23:52.560Z,15.77
2018-09-27T05:25:45.337Z,15.74
2018-09-27T05:26:45.265Z,15.71
2018-09-27T05:28:38.319Z,15.77
2018-09-27T05:29:38.071Z,15.73
2018-09-27T05:31:30.870Z,15.85
2018-09-27T05:32:30.789Z,15.84
2018-09-27T05:34:23.562Z,15.80
2018-09-27T05:35:23.497Z,15.80
2018-09-27T05:37:16.288Z,15.86
2018-09-27T05:38:16.206Z,15.80
2018-09-27T05:40:09.005Z,15.85
2018-09-27T05:41:08.939Z,15.89
2018-09-27T05:43:01.718Z,15.91
2018-09-27T05:44:01.650Z,15.85
2018-09-27T05:45:54.435Z,15.91
2018-09-27T05:46:54.361Z,15.91
2018-09-27T05:48:47.116Z,15.85
2018-09-27T05:49:47.058Z,15.88
2018-09-27T05:51:39.905Z,15.89
2018-09-27T05:52:39.741Z,15.86
2018-09-27T05:54:32.510Z,15.92
2018-09-27T05:55:32.443Z,16.06
2018-09-27T05:57:25.227Z,16.04
2018-09-27T05:58:25.144Z,15.88
2018-09-27T06:00:17.903Z,15.99
2018-09-27T06:01:17.838Z,16.08
2018-09-27T06:03:10.616Z,16.03
2018-09-27T06:04:10.540Z,16.06
2018-09-27T06:06:03.314Z,16.13
2018-09-27T06:07:03.233Z,16.17
2018-09-27T06:08:55.996Z,16.18
2018-09-27T06:09:55.935Z,16.08
2018-09-27T06:11:48.712Z,16.22
2018-09-27T06:12:48.640Z,16.18
2018-09-27T06:14:41.412Z,16.17
2018-09-27T06:15:41.404Z,16.17
2018-09-27T06:17:34.113Z,16.22
2018-09-27T06:18:34.038Z,16.25
2018-09-27T06:20:26.831Z,16.29
2018-09-27T06:21:26.773Z,16.29
2018-09-27T06:23:19.600Z,16.23
2018-09-27T06:24:19.511Z,16.25
2018-09-27T06:26:12.493Z,16.30
2018-09-27T06:27:12.213Z,16.32
2018-09-27T06:29:05.004Z,16.36
2018-09-27T06:30:04.957Z,16.40
2018-09-27T06:31:57.699Z,16.42
2018-09-27T06:32:57.626Z,16.44
2018-09-27T06:34:50.393Z,16.42
2018-09-27T06:35:50.318Z,16.42
2018-09-27T06:37:43.112Z,16.52
2018-09-27T06:38:43.082Z,16.45
2018-09-27T06:40:35.791Z,16.42
2018-09-27T06:41:35.730Z,16.47
2018-09-27T06:43:28.512Z,16.42
2018-09-27T06:44:28.515Z,16.48
2018-09-27T06:46:21.206Z,16.44
2018-09-27T06:47:21.131Z,16.45
2018-09-27T06:49:13.922Z,16.50
2018-09-27T06:50:13.859Z,16.50
2018-09-27T06:52:06.678Z,16.44
2018-09-27T06:53:06.600Z,16.54
2018-09-27T06:54:59.511Z,16.54
2018-09-27T06:55:59.382Z,16.54
2018-09-27T06:57:52.076Z,16.62
2018-09-27T06:58:52.003Z,16.63
2018-09-27T07:00:44.821Z,16.72
2018-09-27T07:01:44.707Z,16.72
2018-09-27T07:03:37.479Z,16.82
2018-09-27T07:04:37.402Z,16.82
2018-09-27T07:06:30.162Z,16.87
2018-09-27T07:07:30.090Z,16.87
2018-09-27T07:09:22.908Z,16.91
2018-09-27T07:10:22.825Z,16.92
2018-09-27T07:12:15.737Z,17.02
2018-09-27T07:13:15.493Z,17.06
2018-09-27T07:15:08.301Z,17.09
2018-09-27T07:16:08.265Z,17.05
2018-09-27T07:18:01.045Z,17.12
2018-09-27T07:19:00.951Z,17.14
2018-09-27T07:20:53.725Z,16.99
2018-09-27T07:21:53.650Z,17.02
2018-09-27T07:23:46.469Z,17.10
2018-09-27T07:24:46.492Z,17.05
2018-09-27T07:26:39.180Z,17.07
2018-09-27T07:27:39.127Z,17.00
2018-09-27T07:29:31.889Z,17.07
2018-09-27T07:30:31.820Z,17.22
2018-09-27T07:32:24.611Z,17.22
2018-09-27T07:33:24.541Z,17.17
2018-09-27T07:35:17.309Z,17.38
2018-09-27T07:36:17.242Z,17.39
2018-09-27T07:38:10.056Z,17.47
2018-09-27T07:39:09.962Z,17.43
2018-09-27T07:41:02.776Z,17.49
2018-09-27T07:42:02.707Z,17.47
2018-09-27T07:43:55.496Z,17.53
2018-09-27T07:44:55.418Z,17.66
2018-09-27T07:46:48.206Z,17.76
2018-09-27T07:47:48.135Z,17.74
2018-09-27T07:49:40.913Z,17.83
2018-09-27T07:50:40.915Z,17.86
2018-09-27T07:52:33.652Z,17.92
2018-09-27T07:53:33.580Z,17.87
2018-09-27T07:55:25.456Z,18.01
2018-09-27T07:56:25.454Z,18.04
2018-09-27T07:58:18.172Z,18.14
2018-09-27T07:59:18.101Z,18.38
2018-09-27T08:01:10.923Z,18.51
2018-09-27T08:02:10.866Z,18.51
2018-09-27T08:04:03.728Z,18.79
2018-09-27T08:05:03.621Z,19.16
2018-09-27T08:06:55.601Z,19.47
2018-09-27T08:07:55.328Z,19.57
2018-09-27T08:09:48.160Z,19.49
2018-09-27T08:10:48.064Z,19.97
2018-09-27T08:12:40.891Z,20.10
2018-09-27T08:13:40.801Z,20.50
2018-09-27T08:15:32.634Z,20.73
2018-09-27T08:16:32.552Z,21.42
2018-09-27T08:18:25.394Z,21.59
2018-09-27T08:19:25.278Z,21.18
2018-09-27T08:21:18.337Z,20.91
2018-09-27T08:22:17.982Z,20.82
2018-09-27T08:24:10.872Z,20.97
2018-09-27T08:25:10.711Z,21.15
2018-09-27T08:27:03.490Z,21.03
2018-09-27T08:28:03.437Z,21.26
2018-09-27T08:29:56.238Z,21.06
2018-09-27T08:30:56.390Z,20.85
2018-09-27T08:32:48.938Z,21.11
2018-09-27T08:33:48.858Z,21.30
2018-09-27T08:35:41.668Z,21.63
2018-09-27T08:36:41.584Z,21.40
2018-09-27T08:38:34.430Z,21.09
2018-09-27T08:39:34.308Z,21.27
2018-09-27T08:41:27.081Z,21.79
2018-09-27T08:42:27.028Z,22.41
2018-09-27T08:44:19.819Z,23.94
2018-09-27T08:45:19.978Z,24.36
2018-09-27T08:47:12.526Z,25.42
2018-09-27T08:48:12.456Z,25.66
2018-09-27T08:50:05.294Z,26.51
2018-09-27T08:51:05.175Z,26.42
2018-09-27T08:52:57.990Z,25.72
2018-09-27T08:53:57.915Z,25.74
2018-09-27T08:55:50.732Z,25.30
2018-09-27T08:56:50.643Z,25.53
2018-09-27T08:58:43.447Z,25.60
2018-09-27T08:59:43.362Z,24.86
2018-09-27T09:01:36.169Z,24.92
2018-09-27T09:02:36.077Z,24.74
2018-09-27T09:04:28.888Z,24.46
2018-09-27T09:05:28.806Z,24.60
2018-09-27T09:07:21.595Z,24.09
2018-09-27T09:08:21.534Z,24.21
2018-09-27T09:10:14.344Z,24.99
2018-09-27T09:11:14.251Z,25.20
2018-09-27T09:13:07.047Z,24.68
2018-09-27T09:14:06.987Z,24.82
2018-09-27T09:15:58.840Z,24.77
2018-09-27T09:16:58.780Z,25.04
2018-09-27T09:18:50.685Z,25.23
2018-09-27T09:19:50.615Z,25.39
2018-09-27T09:21:42.563Z,25.71
2018-09-27T09:22:42.460Z,26.03
2018-09-27T09:24:35.269Z,25.94
2018-09-27T09:25:35.232Z,25.74
2018-09-27T09:27:28.008Z,25.90
2018-09-27T09:28:27.960Z,26.08
2018-09-27T09:30:20.706Z,26.64
2018-09-27T09:31:20.630Z,26.79
2018-09-27T09:33:12.448Z,26.84
2018-09-27T09:34:12.360Z,26.56
2018-09-27T09:36:05.249Z,25.91
2018-09-27T09:37:05.089Z,25.71
2018-09-27T09:38:57.897Z,26.06
2018-09-27T09:39:57.812Z,26.06
2018-09-27T09:41:49.628Z,25.64
2018-09-27T09:42:49.565Z,25.51
2018-09-27T09:44:42.357Z,25.53
2018-09-27T09:45:42.280Z,25.76
2018-09-27T09:47:35.073Z,25.97
2018-09-27T09:48:35.009Z,25.81
2018-09-27T09:50:27.805Z,25.85
2018-09-27T09:51:27.742Z,25.69
2018-09-27T09:53:20.549Z,25.72
2018-09-27T09:54:20.461Z,25.63
2018-09-27T09:56:13.249Z,25.72
2018-09-27T09:57:13.187Z,25.94
2018-09-27T09:59:06.019Z,26.12
2018-09-27T10:00:05.919Z,26.46
2018-09-27T10:01:57.865Z,26.86
2018-09-27T10:02:57.799Z,26.78
2018-09-27T10:04:49.687Z,26.88
2018-09-27T10:05:49.598Z,26.39
2018-09-27T10:07:41.649Z,26.28
2018-09-27T10:08:41.529Z,26.38
2018-09-27T10:10:34.578Z,26.35
2018-09-27T10:11:34.255Z,26.41
2018-09-27T10:13:26.179Z,26.44
2018-09-27T10:14:26.098Z,26.11
2018-09-27T10:16:17.914Z,26.16
2018-09-27T10:17:17.845Z,25.83
2018-09-27T10:19:10.681Z,26.12
2018-09-27T10:20:10.581Z,26.20
2018-09-27T10:22:03.421Z,26.35
2018-09-27T10:23:03.314Z,26.34
2018-09-27T10:24:56.133Z,26.47
2018-09-27T10:25:56.061Z,26.00
2018-09-27T10:27:48.838Z,25.78
2018-09-27T10:28:48.782Z,25.60
2018-09-27T10:30:41.616Z,25.45
2018-09-27T10:31:41.494Z,25.01
2018-09-27T10:33:33.277Z,24.52
2018-09-27T10:34:33.249Z,24.14
2018-09-27T10:36:26.010Z,23.72
2018-09-27T10:37:25.932Z,23.59
2018-09-27T10:39:18.721Z,23.32
2018-09-27T10:40:18.657Z,23.22
2018-09-27T10:42:11.512Z,23.64
2018-09-27T10:43:11.443Z,24.06
2018-09-27T10:45:03.340Z,24.29
2018-09-27T10:46:03.257Z,24.51
2018-09-27T10:47:55.248Z,25.12
2018-09-27T10:48:55.188Z,25.29
2018-09-27T10:50:47.992Z,25.27
2018-09-27T10:51:47.922Z,25.27
2018-09-27T10:53:40.705Z,25.24
2018-09-27T10:54:40.652Z,25.20
2018-09-27T10:56:32.620Z,24.97
2018-09-27T10:57:32.540Z,24.75
2018-09-27T10:59:25.344Z,24.24
2018-09-27T11:00:25.278Z,24.14
2018-09-27T11:02:18.061Z,24.49
2018-09-27T11:03:17.986Z,24.52
2018-09-27T11:05:10.055Z,24.37
2018-09-27T11:06:09.864Z,24.44
2018-09-27T11:08:02.651Z,24.29
2018-09-27T11:09:02.592Z,24.12
2018-09-27T11:10:55.389Z,24.12
2018-09-27T11:11:55.312Z,24.21
2018-09-27T11:13:48.266Z,24.29
2018-09-27T11:14:48.129Z,24.29
2018-09-27T11:16:40.909Z,24.05
2018-09-27T11:17:40.797Z,24.05
2018-09-27T11:19:33.608Z,23.99
2018-09-27T11:20:33.590Z,23.92
2018-09-27T11:22:26.338Z,23.84
2018-09-27T11:23:26.255Z,23.90
2018-09-27T11:25:19.081Z,23.64
2018-09-27T11:26:18.994Z,23.49
2018-09-27T11:28:11.773Z,23.11
2018-09-27T11:29:11.949Z,23.14
2018-09-27T11:31:04.537Z,22.99
2018-09-27T11:32:04.445Z,23.01
2018-09-27T11:33:57.270Z,22.96
2018-09-27T11:34:57.195Z,23.00
2018-09-27T11:36:50.019Z,22.88
2018-09-27T11:37:49.942Z,22.88
2018-09-27T11:39:42.836Z,22.75
2018-09-27T11:40:42.749Z,22.74
2018-09-27T11:42:35.580Z,22.74
2018-09-27T11:43:35.512Z,22.69
2018-09-27T11:45:28.333Z,22.81
2018-09-27T11:46:28.249Z,22.81
2018-09-27T11:48:21.028Z,22.97
2018-09-27T11:49:21.043Z,22.97
2018-09-27T11:51:13.781Z,22.93
2018-09-27T11:52:13.716Z,22.96
2018-09-27T11:54:06.554Z,22.91
2018-09-27T11:55:06.568Z,22.86
2018-09-27T11:56:58.346Z,22.89
2018-09-27T11:57:58.263Z,22.91
2018-09-27T11:59:51.055Z,22.78
2018-09-27T12:00:50.980Z,22.75
2018-09-27T12:02:43.756Z,22.72
2018-09-27T12:03:43.709Z,22.74
2018-09-27T12:05:35.613Z,22.89
2018-09-27T12:06:35.563Z,22.78
2018-09-27T12:08:28.313Z,22.93
2018-09-27T12:09:28.245Z,22.93
2018-09-27T12:11:21.065Z,22.86
2018-09-27T12:12:20.998Z,22.89
2018-09-27T12:14:13.796Z,22.97
2018-09-27T12:15:13.734Z,23.04
2018-09-27T12:17:06.652Z,23.07
2018-09-27T12:18:06.509Z,22.89
2018-09-27T12:19:59.330Z,22.94
2018-09-27T12:20:59.237Z,22.86
2018-09-27T12:22:52.083Z,23.04
2018-09-27T12:23:51.970Z,23.00
2018-09-27T12:25:44.895Z,23.01
2018-09-27T12:26:44.697Z,23.01
2018-09-27T12:28:37.566Z,23.06
2018-09-27T12:29:37.462Z,23.09
2018-09-27T12:31:30.243Z,23.09
2018-09-27T12:32:30.168Z,23.19
2018-09-27T12:34:22.954Z,23.16
2018-09-27T12:35:22.902Z,23.25
2018-09-27T12:37:15.702Z,23.31
2018-09-27T12:38:15.682Z,23.23
2018-09-27T12:40:08.415Z,23.03
2018-09-27T12:41:08.353Z,22.94
2018-09-27T12:43:01.211Z,22.76
2018-09-27T12:44:01.058Z,22.94
2018-09-27T12:45:53.874Z,22.84
2018-09-27T12:46:53.825Z,23.09
2018-09-27T12:48:46.692Z,23.25
2018-09-27T12:49:46.499Z,23.34
2018-09-27T12:51:38.526Z,23.38
2018-09-27T12:52:38.437Z,23.45
2018-09-27T12:54:31.136Z,23.34
2018-09-27T12:55:31.078Z,23.38
2018-09-27T12:57:23.876Z,23.23
2018-09-27T12:58:23.858Z,23.34
2018-09-27T13:00:16.613Z,23.38
2018-09-27T13:01:16.540Z,23.49
2018-09-27T13:03:09.303Z,23.32
2018-09-27T13:04:09.317Z,23.34
2018-09-27T13:06:02.019Z,23.37
2018-09-27T13:07:02.021Z,23.35
2018-09-27T13:08:54.781Z,23.57
2018-09-27T13:09:54.878Z,23.35
2018-09-27T13:11:47.511Z,23.37
2018-09-27T13:12:47.469Z,23.42
2018-09-27T13:14:40.251Z,23.44
2018-09-27T13:15:40.121Z,23.52
2018-09-27T13:17:32.968Z,23.42
2018-09-27T13:18:32.845Z,23.54
2018-09-27T13:20:25.695Z,23.54
2018-09-27T13:21:25.584Z,23.52
2018-09-27T13:23:18.353Z,23.47
2018-09-27T13:24:18.289Z,23.47
2018-09-27T13:26:10.098Z,23.39
2018-09-27T13:27:10.088Z,23.47
2018-09-27T13:29:01.835Z,23.49
2018-09-27T13:30:01.797Z,23.47
2018-09-27T13:31:54.660Z,23.64
2018-09-27T13:32:54.547Z,23.56
2018-09-27T13:34:47.294Z,23.72
2018-09-27T13:35:47.226Z,23.63
2018-09-27T13:37:40.001Z,23.60
2018-09-27T13:38:39.936Z,23.60
2018-09-27T13:40:32.793Z,23.52
2018-09-27T13:41:32.702Z,23.47
2018-09-27T13:43:25.497Z,23.59
2018-09-27T13:44:25.430Z,23.42
2018-09-27T13:46:18.322Z,23.37
2018-09-27T13:47:18.190Z,23.45
2018-09-27T13:49:11.007Z,23.42
2018-09-27T13:50:10.971Z,23.47
2018-09-27T13:52:03.681Z,23.44
2018-09-27T13:53:03.595Z,23.52
2018-09-27T13:54:56.401Z,23.45
2018-09-27T13:55:56.333Z,23.50
2018-09-27T13:57:48.316Z,23.45
2018-09-27T13:58:48.230Z,23.39
2018-09-27T14:00:41.034Z,23.38
2018-09-27T14:01:40.945Z,23.32
2018-09-27T14:03:33.732Z,23.45
2018-09-27T14:04:33.655Z,23.47
2018-09-27T14:06:26.456Z,23.47
2018-09-27T14:07:26.394Z,23.45
2018-09-27T14:09:18.315Z,23.45
2018-09-27T14:10:18.248Z,23.47
2018-09-27T14:12:11.082Z,23.47
2018-09-27T14:13:11.008Z,23.53
2018-09-27T14:15:02.857Z,23.45
2018-09-27T14:16:02.808Z,23.56
2018-09-27T14:17:55.636Z,23.47
2018-09-27T14:18:55.528Z,23.45
2018-09-27T14:20:48.309Z,23.38
2018-09-27T14:21:48.246Z,23.44
2018-09-27T14:23:40.055Z,23.44
2018-09-27T14:24:40.014Z,23.41
2018-09-27T14:26:31.829Z,23.39
2018-09-27T14:27:31.745Z,23.42
2018-09-27T14:29:24.527Z,23.42
2018-09-27T14:30:24.510Z,23.39
2018-09-27T14:32:17.294Z,23.31
2018-09-27T14:33:17.191Z,23.34
2018-09-27T14:35:09.130Z,23.16
2018-09-27T14:36:09.065Z,23.22
2018-09-27T14:38:01.860Z,23.31
2018-09-27T14:39:01.816Z,23.37
2018-09-27T14:41:20.010Z,23.37
2018-09-27T14:42:19.939Z,23.35
2018-09-27T14:44:12.713Z,23.45
2018-09-27T14:45:12.664Z,23.32
2018-09-27T14:47:05.433Z,23.32
2018-09-27T14:48:05.365Z,23.32
2018-09-27T14:49:58.143Z,23.35
2018-09-27T14:50:58.077Z,23.35
2018-09-27T14:52:50.879Z,23.34
2018-09-27T14:53:50.786Z,23.35
2018-09-27T14:55:43.567Z,23.31
2018-09-27T14:56:43.503Z,23.22
2018-09-27T14:58:36.326Z,23.23
2018-09-27T14:59:36.297Z,23.22
2018-09-27T15:01:29.009Z,23.14
2018-09-27T15:02:29.008Z,23.12
2018-09-27T15:04:21.705Z,23.15
2018-09-27T15:05:21.644Z,23.11
2018-09-27T15:07:14.442Z,23.14
2018-09-27T15:08:14.370Z,23.11
2018-09-27T15:10:07.169Z,23.11
2018-09-27T15:11:07.085Z,23.12
2018-09-27T15:12:59.902Z,23.14
2018-09-27T15:13:59.833Z,23.14
2018-09-27T15:15:52.599Z,23.04
2018-09-27T15:16:52.535Z,23.06
2018-09-27T15:18:45.314Z,23.04
2018-09-27T15:19:45.246Z,23.11
2018-09-27T15:21:38.028Z,23.07
2018-09-27T15:22:37.953Z,23.00
2018-09-27T15:24:31.037Z,23.01
2018-09-27T15:25:30.960Z,23.03
2018-09-27T15:27:23.749Z,23.07
2018-09-27T15:28:23.671Z,23.01
2018-09-27T15:30:16.443Z,22.99
2018-09-27T15:31:16.381Z,22.99
2018-09-27T15:33:09.166Z,22.97
2018-09-27T15:34:09.090Z,22.94
2018-09-27T15:36:01.858Z,22.89
2018-09-27T15:37:01.808Z,22.84
2018-09-27T15:38:54.592Z,22.76
2018-09-27T15:39:54.546Z,22.67
2018-09-27T15:41:47.289Z,22.76
2018-09-27T15:42:47.228Z,22.81
2018-09-27T15:44:40.013Z,22.78
2018-09-27T15:45:40.007Z,22.78
2018-09-27T15:47:32.747Z,22.70
2018-09-27T15:48:32.657Z,22.63
2018-09-27T15:50:25.433Z,22.63
2018-09-27T15:51:25.391Z,22.61
2018-09-27T15:53:18.165Z,22.49
2018-09-27T15:54:18.077Z,22.54
2018-09-27T15:56:10.859Z,22.54
2018-09-27T15:57:10.790Z,22.51
2018-09-27T15:59:03.574Z,22.52
2018-09-27T16:00:03.505Z,22.41
2018-09-27T16:01:56.287Z,22.41
2018-09-27T16:02:56.232Z,22.39
2018-09-27T16:04:49.036Z,22.27
2018-09-27T16:05:48.936Z,22.44
2018-09-27T16:07:41.710Z,22.33
2018-09-27T16:08:41.651Z,22.35
2018-09-27T16:10:34.432Z,22.38
2018-09-27T16:11:34.418Z,22.33
2018-09-27T16:13:27.142Z,22.23
2018-09-27T16:14:27.075Z,22.20
2018-09-27T16:16:19.858Z,22.20
2018-09-27T16:17:19.790Z,22.17
2018-09-27T16:19:12.562Z,22.19
2018-09-27T16:20:12.512Z,22.15
2018-09-27T16:22:05.311Z,22.11
2018-09-27T16:23:05.192Z,22.11
2018-09-27T16:24:57.982Z,21.96
2018-09-27T16:25:57.908Z,22.02
2018-09-27T16:27:50.692Z,21.94
2018-09-27T16:28:50.620Z,21.86
2018-09-27T16:30:43.383Z,21.96
2018-09-27T16:31:43.334Z,21.79
2018-09-27T16:33:36.207Z,21.79
2018-09-27T16:34:36.038Z,21.77
2018-09-27T16:36:28.807Z,21.77
2018-09-27T16:37:28.750Z,21.67
2018-09-27T16:39:21.526Z,21.67
2018-09-27T16:40:21.525Z,21.73
2018-09-27T16:42:14.219Z,21.66
2018-09-27T16:43:14.160Z,21.67
2018-09-27T16:45:06.932Z,21.66
2018-09-27T16:46:06.858Z,21.61
2018-09-27T16:47:59.641Z,21.48
2018-09-27T16:48:59.579Z,21.49
2018-09-27T16:50:52.329Z,21.45
2018-09-27T16:51:52.268Z,21.43
2018-09-27T16:53:45.092Z,21.36
2018-09-27T16:54:44.983Z,21.38
2018-09-27T16:56:37.750Z,21.30
2018-09-27T16:57:37.693Z,21.24
2018-09-27T16:59:30.525Z,21.11
2018-09-27T17:00:30.394Z,21.06
2018-09-27T17:02:23.155Z,21.08
2018-09-27T17:03:23.096Z,21.03
2018-09-27T17:05:15.874Z,20.91
2018-09-27T17:06:15.807Z,20.90
2018-09-27T17:08:08.602Z,20.81
2018-09-27T17:09:08.529Z,20.81
2018-09-27T17:11:01.351Z,20.73
2018-09-27T17:12:01.241Z,20.78
2018-09-27T17:13:54.023Z,20.69
2018-09-27T17:14:53.950Z,20.69
2018-09-27T17:16:46.723Z,20.64
2018-09-27T17:17:46.795Z,20.68
2018-09-27T17:19:52.213Z,20.63
2018-09-27T17:20:52.158Z,20.50
2018-09-27T17:22:45.036Z,20.51
2018-09-27T17:23:44.913Z,20.44
2018-09-27T17:25:37.629Z,20.31
2018-09-27T17:26:37.559Z,20.25
2018-09-27T17:28:30.373Z,20.26
2018-09-27T17:29:30.296Z,20.25
2018-09-27T17:31:23.041Z,20.27
2018-09-27T17:32:22.959Z,20.19
2018-09-27T17:34:15.738Z,20.20
2018-09-27T17:35:15.672Z,20.13
2018-09-27T17:37:08.510Z,20.13
2018-09-27T17:38:08.369Z,20.00
2018-09-27T17:40:01.156Z,20.04
2018-09-27T17:41:01.068Z,20.01
2018-09-27T17:42:53.894Z,19.92
2018-09-27T17:43:53.841Z,19.90
2018-09-27T17:45:46.654Z,19.85
2018-09-27T17:46:46.670Z,19.98
2018-09-27T17:48:39.327Z,19.83
2018-09-27T17:49:39.320Z,19.87
2018-09-27T17:51:32.039Z,19.83
2018-09-27T17:52:31.991Z,19.80
2018-09-27T17:54:24.852Z,19.82
2018-09-27T17:55:24.722Z,19.72
2018-09-27T17:57:17.464Z,19.72
2018-09-27T17:58:17.396Z,19.72
2018-09-27T18:00:10.348Z,19.76
2018-09-27T18:01:10.277Z,19.62
2018-09-27T18:03:03.041Z,19.67
2018-09-27T18:04:02.982Z,19.64
2018-09-27T18:05:55.761Z,19.53
2018-09-27T18:06:55.687Z,19.52
2018-09-27T18:08:48.464Z,19.52
2018-09-27T18:09:48.397Z,19.58
2018-09-27T18:11:41.459Z,19.53
2018-09-27T18:12:41.309Z,19.53
2018-09-27T18:14:34.084Z,19.53
2018-09-27T18:15:34.012Z,19.50
2018-09-27T18:17:26.824Z,19.49
2018-09-27T18:18:26.708Z,19.45
2018-09-27T18:20:19.501Z,19.53
2018-09-27T18:21:19.418Z,19.53
2018-09-27T18:23:12.189Z,19.60
2018-09-27T18:24:12.149Z,19.50
2018-09-27T18:26:04.899Z,19.50
2018-09-27T18:27:04.889Z,19.49
2018-09-27T18:28:57.628Z,19.55
2018-09-27T18:29:57.551Z,19.42
2018-09-27T18:31:50.334Z,19.47